createdAt,value
2023-05-10T05:25:29.568Z,43.07
2023-05-10T05:27:56.716Z,43.14
2023-05-10T05:30:23.585Z,43.32
2023-05-10T05:32:50.560Z,43.46
2023-05-10T05:35:17.941Z,43.26
2023-05-10T05:37:45.140Z,42.90
2023-05-10T05:40:15.271Z,43.02
2023-05-10T05:42:42.574Z,43.04
2023-05-10T05:45:14.078Z,42.41
2023-05-10T05:47:41.495Z,42.53
2023-05-10T05:50:09.365Z,42.39
2023-05-10T05:52:37.175Z,41.96
2023-05-10T05:55:04.800Z,41.92
2023-05-10T05:57:31.749Z,42.10
2023-05-10T05:59:58.945Z,42.21
2023-05-10T06:02:25.872Z,42.17
2023-05-10T06:04:52.965Z,42.10
2023-05-10T06:07:19.894Z,41.88
2023-05-10T06:09:46.857Z,41.72
2023-05-10T06:12:13.819Z,41.64
2023-05-10T06:14:40.755Z,41.66
2023-05-10T06:17:12.379Z,41.64
2023-05-10T06:19:43.530Z,41.05
2023-05-10T06:22:12.011Z,40.66
2023-05-10T06:24:38.947Z,40.67
2023-05-10T06:27:05.852Z,40.70
2023-05-10T06:29:33.332Z,40.16
2023-05-10T06:32:00.468Z,40.28
2023-05-10T06:34:27.526Z,39.95
2023-05-10T06:36:54.601Z,39.55
2023-05-10T06:39:21.523Z,39.20
2023-05-10T06:41:48.373Z,39.37
2023-05-10T06:44:15.356Z,39.06
2023-05-10T06:46:43.135Z,39.22
2023-05-10T06:49:10.297Z,38.60
2023-05-10T06:51:37.384Z,39.00
2023-05-10T06:54:04.307Z,39.30
2023-05-10T06:56:31.160Z,39.46
2023-05-10T06:58:58.076Z,39.69
2023-05-10T07:01:25.105Z,39.83
2023-05-10T07:03:52.178Z,40.32
2023-05-10T07:06:32.310Z,40.21
2023-05-10T07:09:00.554Z,40.18
2023-05-10T07:11:27.862Z,40.99
2023-05-10T07:13:54.900Z,41.59
2023-05-10T07:16:22.799Z,41.27
2023-05-10T07:18:51.560Z,41.02
2023-05-10T07:21:18.553Z,41.46
2023-05-10T07:23:45.556Z,41.44
2023-05-10T07:26:12.789Z,41.04
2023-05-10T07:28:40.245Z,40.98
2023-05-10T07:31:07.246Z,40.69
2023-05-10T07:33:34.415Z,40.77
2023-05-10T07:36:01.469Z,40.96
2023-05-10T07:38:28.822Z,40.92
2023-05-10T07:40:55.964Z,41.22
2023-05-10T13:23:58.054Z,45.01
2023-05-10T13:26:25.119Z,44.66
2023-05-10T13:28:52.937Z,45.41
2023-05-10T13:31:20.040Z,45.99
2023-05-10T13:33:47.153Z,46.65
2023-05-10T13:36:14.408Z,45.71
2023-05-10T13:38:41.381Z,45.04
2023-05-10T13:41:08.296Z,45.02
2023-05-10T13:43:35.163Z,45.59
2023-05-10T13:46:03.935Z,44.92
2023-05-10T13:48:30.938Z,44.87
2023-05-10T13:50:58.152Z,45.13
2023-05-10T13:53:24.995Z,44.51
2023-05-10T13:56:10.271Z,44.45
2023-05-10T13:58:37.628Z,44.07
2023-05-10T14:01:05.945Z,44.00
2023-05-10T14:03:33.947Z,44.00
2023-05-10T14:06:01.669Z,44.10
2023-05-10T14:08:28.925Z,43.89
2023-05-10T14:10:57.713Z,43.56
2023-05-10T14:13:25.968Z,43.36
2023-05-10T14:15:54.736Z,43.05
2023-05-10T14:18:22.172Z,43.24
2023-05-10T14:20:50.014Z,43.20
2023-05-10T14:23:16.961Z,43.29
2023-05-10T14:25:43.873Z,43.54
2023-05-10T14:28:10.900Z,42.91
2023-05-10T14:30:37.924Z,42.65
2023-05-10T14:33:05.205Z,42.70
2023-05-10T14:35:32.277Z,42.29
2023-05-10T14:37:59.888Z,42.22
2023-05-10T14:40:27.070Z,42.47
2023-05-10T14:42:54.199Z,42.16
2023-05-10T14:45:21.840Z,41.86
2023-05-10T14:47:48.831Z,42.04
2023-05-10T14:50:28.280Z,42.00
2023-05-10T14:53:02.170Z,41.90
2023-05-10T14:55:29.210Z,42.09
2023-05-10T14:57:56.292Z,42.33
2023-05-10T15:00:25.076Z,41.83
2023-05-10T15:02:52.398Z,41.53
2023-05-10T15:05:19.953Z,41.54
2023-05-10T15:07:47.345Z,41.20
2023-05-10T15:10:15.223Z,41.18
2023-05-10T15:12:42.468Z,40.83
2023-05-10T15:15:09.626Z,40.17
2023-05-10T15:17:36.787Z,39.75
2023-05-10T15:20:04.729Z,39.65
2023-05-10T15:22:34.284Z,39.88
2023-05-10T15:25:01.439Z,40.17
2023-05-10T15:27:28.583Z,39.66
2023-05-10T15:29:56.366Z,39.40
2023-05-10T15:32:25.342Z,39.63
2023-05-10T15:34:52.289Z,39.56
2023-05-10T15:37:19.116Z,39.84
2023-05-10T15:39:45.983Z,39.57
2023-05-10T15:42:13.058Z,39.77
2023-05-10T15:44:39.992Z,40.12
2023-05-10T15:47:07.013Z,39.48
2023-05-10T15:49:34.318Z,39.63
2023-05-10T15:52:01.151Z,39.01
2023-05-10T15:54:28.303Z,38.95
2023-05-10T15:56:55.460Z,38.74
2023-05-10T15:59:22.418Z,38.66
2023-05-10T16:01:50.423Z,39.21
2023-05-10T16:04:17.954Z,39.36
2023-05-10T16:06:44.915Z,39.06
2023-05-10T16:09:11.851Z,39.12
2023-05-10T16:11:38.801Z,39.22
2023-05-10T16:14:07.116Z,39.16
2023-05-10T16:16:34.732Z,39.01
2023-05-10T16:19:03.721Z,39.14
2023-05-10T16:21:32.773Z,39.06
2023-05-10T16:24:03.221Z,39.00
2023-05-10T16:26:30.386Z,38.81
2023-05-10T16:28:57.263Z,38.95
2023-05-10T16:31:24.515Z,39.12
2023-05-10T16:33:51.601Z,39.17
2023-05-10T16:36:18.653Z,39.22
2023-05-10T16:38:45.510Z,39.36
2023-05-10T16:41:12.670Z,39.39
2023-05-10T16:43:39.520Z,39.52
2023-05-10T16:46:12.705Z,39.60
2023-05-10T16:48:39.843Z,39.53
2023-05-10T16:51:06.724Z,39.56
2023-05-10T16:53:34.394Z,39.70
2023-05-10T16:56:01.371Z,39.80
2023-05-10T16:58:28.359Z,39.82
2023-05-10T17:00:55.343Z,39.93
2023-05-10T17:03:22.493Z,40.00
2023-05-10T17:05:49.534Z,39.98
2023-05-10T17:08:16.597Z,40.19
2023-05-10T17:10:43.528Z,40.02
2023-05-10T17:13:11.117Z,40.30
2023-05-10T17:15:39.012Z,40.50
2023-05-10T17:18:07.307Z,40.56
2023-05-10T17:20:34.636Z,40.86
2023-05-10T17:23:03.239Z,41.06
2023-05-10T17:25:30.142Z,41.15
2023-05-10T17:27:56.980Z,41.39
2023-05-10T17:30:27.618Z,41.77
2023-05-10T17:32:54.769Z,42.24
2023-05-10T17:35:21.842Z,42.59
2023-05-10T17:37:48.884Z,43.35
2023-05-10T17:40:15.836Z,43.56
2023-05-10T17:42:42.886Z,43.62
2023-05-10T17:45:10.505Z,43.87
2023-05-10T17:47:37.910Z,44.27
2023-05-10T17:50:06.000Z,44.44
2023-05-10T17:52:33.727Z,45.08
2023-05-10T17:55:01.116Z,45.25
2023-05-10T17:57:28.378Z,45.74
2023-05-10T17:59:56.092Z,46.28
2023-05-10T18:02:23.146Z,46.95
2023-05-10T18:04:50.157Z,47.35
2023-05-10T18:07:17.196Z,46.96
2023-05-10T18:09:44.023Z,46.85
2023-05-10T18:12:10.899Z,46.49
2023-05-10T18:14:41.181Z,46.27
2023-05-10T18:17:09.691Z,46.32
2023-05-10T18:19:37.004Z,46.19
2023-05-10T18:22:03.922Z,46.21
2023-05-10T18:24:38.956Z,46.23
2023-05-10T18:27:08.946Z,46.37
2023-05-10T18:29:36.761Z,46.48
2023-05-10T18:32:03.682Z,46.57
2023-05-10T18:34:30.541Z,46.93
2023-05-10T18:36:57.799Z,47.02
2023-05-10T18:39:25.103Z,46.96
2023-05-10T18:41:52.021Z,47.36
2023-05-10T18:44:19.301Z,47.29
2023-05-10T18:46:46.528Z,48.17
2023-05-10T18:49:13.672Z,48.21
2023-05-10T18:51:40.560Z,48.37
2023-05-10T18:54:07.738Z,48.71
2023-05-10T18:56:34.766Z,48.23
2023-05-10T18:59:01.791Z,48.37
2023-05-10T19:01:28.756Z,48.67
2023-05-10T19:03:55.691Z,48.47
2023-05-10T19:06:22.569Z,49.01
2023-05-10T19:08:50.781Z,49.07
2023-05-10T19:11:17.635Z,49.23
2023-05-10T19:13:45.469Z,49.06
2023-05-10T19:16:14.338Z,48.70
2023-05-10T19:18:43.567Z,48.47
2023-05-10T19:21:11.699Z,48.27
2023-05-10T19:23:40.420Z,48.26
2023-05-10T19:26:10.669Z,48.64
2023-05-10T19:28:38.085Z,48.81
2023-05-10T19:31:06.013Z,48.77
2023-05-10T19:33:33.418Z,49.36
2023-05-10T19:36:00.386Z,49.07
2023-05-10T19:38:27.325Z,49.18
2023-05-10T19:41:00.161Z,49.52
2023-05-10T19:43:27.971Z,49.57
2023-05-10T19:45:55.674Z,49.26
2023-05-10T19:48:22.603Z,48.87
2023-05-10T19:50:49.546Z,48.69
2023-05-10T19:53:16.710Z,48.71
2023-05-10T19:55:43.739Z,48.52
2023-05-10T19:58:10.605Z,48.55
2023-05-10T20:00:38.068Z,48.81
2023-05-10T20:03:07.738Z,48.56
2023-05-10T20:05:36.075Z,48.16
2023-05-10T20:08:02.965Z,48.15
2023-05-10T20:10:29.874Z,47.95
2023-05-10T20:12:58.849Z,47.90
2023-05-10T20:15:26.020Z,48.14
2023-05-10T20:17:53.377Z,48.15
2023-05-10T20:20:21.081Z,47.99
2023-05-10T20:22:48.814Z,47.82
2023-05-10T20:25:16.019Z,48.04
2023-05-10T20:27:42.910Z,47.86
2023-05-10T20:30:10.513Z,47.96
2023-05-10T20:32:37.765Z,48.20
2023-05-10T20:35:05.514Z,48.16
2023-05-10T20:37:32.447Z,48.15
2023-05-10T20:39:59.357Z,48.26
2023-05-10T20:42:26.655Z,48.30
2023-05-10T20:44:53.622Z,48.49
2023-05-10T20:47:20.545Z,48.34
2023-05-10T20:49:47.399Z,48.48
2023-05-10T20:52:14.362Z,48.51
2023-05-10T20:54:41.623Z,48.52
2023-05-10T20:57:08.482Z,48.54
2023-05-10T20:59:35.516Z,48.57
2023-05-10T21:02:02.497Z,48.65
2023-05-10T21:04:29.476Z,48.45
2023-05-10T21:06:57.188Z,48.77
2023-05-10T21:09:24.111Z,48.76
2023-05-10T21:11:51.085Z,48.86
2023-05-10T21:14:17.972Z,48.56
2023-05-10T21:16:44.888Z,49.00
2023-05-10T21:19:12.050Z,48.94
2023-05-10T21:21:38.992Z,48.86
2023-05-10T21:24:06.882Z,49.03
2023-05-10T21:26:33.812Z,49.07
2023-05-10T21:29:00.790Z,48.99
2023-05-10T21:31:28.418Z,49.05
2023-05-10T21:33:55.508Z,49.01
2023-05-10T21:36:22.567Z,49.42
2023-05-10T21:38:50.721Z,49.44
2023-05-10T21:41:17.879Z,49.40
2023-05-10T21:43:44.826Z,49.52
2023-05-10T21:46:13.599Z,49.82
2023-05-10T21:48:40.573Z,49.81
2023-05-10T21:51:07.440Z,49.84
2023-05-10T21:53:36.521Z,50.10
2023-05-10T21:56:03.445Z,50.59
2023-05-10T21:58:30.431Z,50.53
2023-05-10T22:00:57.372Z,50.77
2023-05-10T22:03:24.497Z,50.92
2023-05-10T22:05:51.475Z,51.29
2023-05-10T22:08:18.320Z,51.58
2023-05-10T22:10:45.123Z,51.32
2023-05-10T22:13:11.966Z,51.30
2023-05-10T22:15:39.576Z,51.07
2023-05-10T22:18:06.473Z,51.03
2023-05-10T22:20:33.386Z,50.84
2023-05-10T22:23:01.022Z,50.87
2023-05-10T22:25:28.405Z,51.33
2023-05-10T22:27:55.363Z,51.07
2023-05-10T22:30:22.718Z,51.17
2023-05-10T22:32:49.681Z,51.16
2023-05-10T22:35:16.546Z,51.22
2023-05-10T22:37:43.472Z,51.36
2023-05-10T22:40:11.078Z,51.57
2023-05-10T22:42:38.316Z,51.59
2023-05-10T22:45:05.901Z,51.63
2023-05-10T22:47:33.676Z,51.81
2023-05-10T22:50:03.570Z,51.96
2023-05-10T22:52:30.590Z,52.15
2023-05-10T22:54:57.486Z,52.30
2023-05-10T22:57:24.715Z,52.61
2023-05-10T22:59:52.144Z,52.58
2023-05-10T23:02:19.116Z,52.71
2023-05-10T23:04:46.804Z,52.92
2023-05-10T23:07:13.836Z,52.70
2023-05-10T23:09:40.792Z,52.57
2023-05-10T23:12:07.781Z,53.01
2023-05-10T23:14:34.820Z,52.92
2023-05-10T23:17:01.733Z,52.73
2023-05-10T23:19:28.682Z,52.48
2023-05-10T23:21:55.530Z,52.69
2023-05-10T23:24:22.490Z,52.37
2023-05-10T23:26:49.321Z,52.22
2023-05-10T23:29:16.690Z,52.35
2023-05-10T23:31:46.334Z,52.46
2023-05-10T23:34:13.273Z,52.44
2023-05-10T23:36:40.206Z,52.37
2023-05-10T23:39:08.516Z,52.44
2023-05-10T23:41:35.379Z,52.52
2023-05-10T23:44:05.154Z,52.31
2023-05-10T23:46:31.996Z,52.39
2023-05-10T23:48:58.841Z,52.46
2023-05-10T23:51:25.694Z,52.32
2023-05-10T23:53:52.659Z,52.25
2023-05-10T23:56:19.596Z,52.37
2023-05-10T23:58:46.561Z,52.24
